createdAt,value
2018-09-21T00:00:29.398Z,20.34
2018-09-21T00:01:29.401Z,20.36
2018-09-21T00:02:29.394Z,20.40
2018-09-21T00:03:29.390Z,20.34
2018-09-21T00:04:29.388Z,20.36
2018-09-21T00:05:29.379Z,20.31
2018-09-21T00:06:29.378Z,20.25
2018-09-21T00:07:29.372Z,20.28
2018-09-21T00:08:29.371Z,20.26
2018-09-21T00:09:29.372Z,20.29
2018-09-21T00:10:29.365Z,20.25
2018-09-21T00:11:29.363Z,20.29
2018-09-21T00:12:29.359Z,20.26
2018-09-21T00:13:29.359Z,20.24
2018-09-21T00:14:29.354Z,20.26
2018-09-21T00:15:29.344Z,20.22
2018-09-21T00:16:29.344Z,20.22
2018-09-21T00:17:29.344Z,20.22
2018-09-21T00:18:29.338Z,20.11
2018-09-21T00:19:29.333Z,20.16
2018-09-21T00:20:29.324Z,20.19
2018-09-21T00:21:29.322Z,20.10
2018-09-21T00:22:29.318Z,20.14
2018-09-21T00:23:29.318Z,20.18
2018-09-21T00:24:29.312Z,20.19
2018-09-21T00:25:29.309Z,20.09
2018-09-21T00:26:29.306Z,20.10
2018-09-21T00:27:29.299Z,20.07
2018-09-21T00:28:29.298Z,20.09
2018-09-21T00:29:29.292Z,20.14
2018-09-21T00:30:29.294Z,20.04
2018-09-21T00:31:29.289Z,20.00
2018-09-21T00:32:29.280Z,20.07
2018-09-21T00:33:29.278Z,20.11
2018-09-21T00:34:29.274Z,20.06
2018-09-21T00:35:29.271Z,20.07
2018-09-21T00:36:29.270Z,20.06
2018-09-21T00:37:29.271Z,19.96
2018-09-21T00:38:29.262Z,20.06
2018-09-21T00:39:29.254Z,20.02
2018-09-21T00:40:29.256Z,20.04
2018-09-21T00:41:29.247Z,20.03
2018-09-21T00:42:29.245Z,20.03
2018-09-21T00:43:29.239Z,19.96
2018-09-21T00:44:29.239Z,20.03
2018-09-21T00:45:29.234Z,20.03
2018-09-21T00:46:29.232Z,19.95
2018-09-21T00:47:29.227Z,19.99
2018-09-21T00:48:29.220Z,20.02
2018-09-21T00:49:29.218Z,19.96
2018-09-21T00:50:29.211Z,20.07
2018-09-21T00:51:29.218Z,19.96
2018-09-21T00:52:29.208Z,20.00
2018-09-21T00:53:29.199Z,20.07
2018-09-21T00:54:29.198Z,20.00
2018-09-21T00:55:29.189Z,19.96
2018-09-21T00:56:29.193Z,20.04
2018-09-21T00:57:29.197Z,19.94
2018-09-21T00:58:29.183Z,20.02
2018-09-21T00:59:29.178Z,19.96
2018-09-21T01:00:29.173Z,20.02
2018-09-21T01:01:29.173Z,20.03
2018-09-21T01:02:29.166Z,20.10
2018-09-21T01:03:29.159Z,20.03
2018-09-21T01:04:29.158Z,20.02
2018-09-21T01:05:29.154Z,19.96
2018-09-21T01:06:29.148Z,19.94
2018-09-21T01:07:29.152Z,20.03
2018-09-21T01:08:29.142Z,20.02
2018-09-21T01:09:29.199Z,19.99
2018-09-21T01:10:29.139Z,19.91
2018-09-21T01:11:29.133Z,19.94
2018-09-21T01:12:29.130Z,19.96
2018-09-21T01:13:29.127Z,19.96
2018-09-21T01:14:29.130Z,19.86
2018-09-21T01:15:29.122Z,19.85
2018-09-21T01:16:29.112Z,19.76
2018-09-21T01:17:29.106Z,19.85
2018-09-21T01:18:29.105Z,19.76
2018-09-21T01:19:29.099Z,19.71
2018-09-21T01:20:29.107Z,19.74
2018-09-21T01:21:29.103Z,19.69
2018-09-21T01:22:29.090Z,19.73
2018-09-21T01:23:29.088Z,19.74
2018-09-21T01:24:29.078Z,19.67
2018-09-21T01:25:29.077Z,19.70
2018-09-21T01:26:29.078Z,19.66
2018-09-21T01:27:29.065Z,19.64
2018-09-21T01:28:29.067Z,19.63
2018-09-21T01:29:29.060Z,19.69
2018-09-21T01:30:29.060Z,19.64
2018-09-21T01:31:29.051Z,19.63
2018-09-21T01:32:29.047Z,19.56
2018-09-21T01:33:29.054Z,19.63
2018-09-21T01:34:29.047Z,19.67
2018-09-21T01:35:29.038Z,19.63
2018-09-21T01:36:29.029Z,19.66
2018-09-21T01:37:29.028Z,19.54
2018-09-21T01:38:29.023Z,19.54
2018-09-21T01:39:29.019Z,19.51
2018-09-21T01:40:29.019Z,19.51
2018-09-21T01:41:29.015Z,19.54
2018-09-21T01:42:29.012Z,19.51
2018-09-21T01:43:29.009Z,19.56
2018-09-21T01:44:29.003Z,19.55
2018-09-21T01:45:28.999Z,19.59
2018-09-21T01:46:28.993Z,19.58
2018-09-21T01:47:28.986Z,19.49
2018-09-21T01:48:28.983Z,19.54
2018-09-21T01:49:28.994Z,19.56
2018-09-21T01:50:28.994Z,19.55
2018-09-21T01:51:28.974Z,19.56
2018-09-21T01:52:28.968Z,19.55
2018-09-21T01:53:28.964Z,19.55
2018-09-21T01:54:28.965Z,19.47
2018-09-21T01:55:28.953Z,19.51
2018-09-21T01:56:28.952Z,19.52
2018-09-21T01:57:28.951Z,19.55
2018-09-21T01:58:28.944Z,19.48
2018-09-21T01:59:28.943Z,19.52
2018-09-21T02:00:28.936Z,19.48
2018-09-21T02:01:28.931Z,19.47
2018-09-21T02:02:28.929Z,19.47
2018-09-21T02:03:28.924Z,19.45
2018-09-21T02:04:28.925Z,19.55
2018-09-21T02:05:28.920Z,19.44
2018-09-21T02:06:28.917Z,19.45
2018-09-21T02:07:28.905Z,19.40
2018-09-21T02:08:28.904Z,19.40
2018-09-21T02:09:28.914Z,19.44
2018-09-21T02:10:28.900Z,19.45
2018-09-21T02:11:28.903Z,19.49
2018-09-21T02:12:28.892Z,19.45
2018-09-21T02:13:28.888Z,19.37
2018-09-21T02:14:28.879Z,19.40
2018-09-21T02:15:28.872Z,19.48
2018-09-21T02:16:28.873Z,19.41
2018-09-21T02:17:28.885Z,19.41
2018-09-21T02:18:28.865Z,19.44
2018-09-21T02:19:28.869Z,19.41
2018-09-21T02:20:28.886Z,19.49
2018-09-21T02:21:28.850Z,19.41
2018-09-21T02:22:28.844Z,19.44
2018-09-21T02:23:28.843Z,19.49
2018-09-21T02:24:28.840Z,19.40
2018-09-21T02:25:28.833Z,19.40
2018-09-21T02:26:28.836Z,19.45
2018-09-21T02:27:28.825Z,19.45
2018-09-21T02:28:28.824Z,19.45
2018-09-21T02:29:28.820Z,19.41
2018-09-21T02:30:28.814Z,19.52
2018-09-21T02:31:28.819Z,19.49
2018-09-21T02:32:28.809Z,19.51
2018-09-21T02:33:28.811Z,19.49
2018-09-21T02:34:28.799Z,19.45
2018-09-21T02:35:28.792Z,19.52
2018-09-21T02:36:28.792Z,19.47
2018-09-21T02:37:28.786Z,19.47
2018-09-21T02:38:28.779Z,19.44
2018-09-21T02:39:28.779Z,19.47
2018-09-21T02:40:28.771Z,19.52
2018-09-21T02:41:28.865Z,19.52
2018-09-21T02:42:28.769Z,19.47
2018-09-21T02:43:28.763Z,19.47
2018-09-21T02:44:28.761Z,19.51
2018-09-21T02:45:28.756Z,19.47
2018-09-21T02:46:28.759Z,19.52
2018-09-21T02:47:28.745Z,19.44
2018-09-21T02:48:28.743Z,19.41
2018-09-21T02:49:28.737Z,19.49
2018-09-21T02:50:28.734Z,19.44
2018-09-21T02:51:28.731Z,19.45
2018-09-21T02:52:28.721Z,19.44
2018-09-21T02:53:28.722Z,19.40
2018-09-21T02:54:28.715Z,19.41
2018-09-21T02:55:28.715Z,19.44
2018-09-21T02:56:28.706Z,19.47
2018-09-21T02:57:28.702Z,19.44
2018-09-21T02:58:28.705Z,19.54
2018-09-21T02:59:28.694Z,19.47
2018-09-21T03:00:28.770Z,19.44
2018-09-21T03:01:28.687Z,19.44
2018-09-21T03:02:28.684Z,19.41
2018-09-21T03:03:28.682Z,19.44
2018-09-21T03:04:28.673Z,19.44
2018-09-21T03:05:28.679Z,19.44
2018-09-21T03:06:28.670Z,19.41
2018-09-21T03:07:28.666Z,19.45
2018-09-21T03:08:28.664Z,19.52
2018-09-21T03:09:28.657Z,19.48
2018-09-21T03:10:28.654Z,19.47
2018-09-21T03:11:28.644Z,19.56
2018-09-21T03:12:28.639Z,19.44
2018-09-21T03:13:28.635Z,19.49
2018-09-21T03:14:28.634Z,19.47
2018-09-21T03:15:28.630Z,19.54
2018-09-21T03:16:28.624Z,19.54
2018-09-21T03:17:28.623Z,19.47
2018-09-21T03:18:28.621Z,19.41
2018-09-21T03:19:28.619Z,19.51
2018-09-21T03:20:28.606Z,19.55
2018-09-21T03:21:28.609Z,19.58
2018-09-21T03:22:28.614Z,19.52
2018-09-21T03:23:28.612Z,19.54
2018-09-21T03:24:28.597Z,19.51
2018-09-21T03:25:28.596Z,19.49
2018-09-21T03:26:28.590Z,19.51
2018-09-21T03:27:28.580Z,19.48
2018-09-21T03:28:28.576Z,19.54
2018-09-21T03:29:28.580Z,19.55
2018-09-21T03:30:28.574Z,19.56
2018-09-21T03:31:28.563Z,19.58
2018-09-21T03:32:28.566Z,19.64
2018-09-21T03:33:28.565Z,19.66
2018-09-21T03:34:28.553Z,19.69
2018-09-21T03:35:28.549Z,19.66
2018-09-21T03:36:28.565Z,19.66
2018-09-21T03:37:28.548Z,19.63
2018-09-21T03:38:28.545Z,19.67
2018-09-21T03:39:28.531Z,19.73
2018-09-21T03:40:28.530Z,19.76
2018-09-21T03:41:28.522Z,19.79
2018-09-21T03:42:28.528Z,19.85
2018-09-21T03:43:28.544Z,19.70
2018-09-21T03:44:28.520Z,19.86
2018-09-21T03:45:28.516Z,19.82
2018-09-21T03:46:28.509Z,19.88
2018-09-21T03:47:28.509Z,19.92
2018-09-21T03:48:28.494Z,19.95
2018-09-21T03:49:28.494Z,19.94
2018-09-21T03:50:28.487Z,19.99
2018-09-21T03:51:28.482Z,19.96
2018-09-21T03:52:28.484Z,20.00
2018-09-21T03:53:28.474Z,20.06
2018-09-21T03:54:28.471Z,19.99
2018-09-21T03:55:28.466Z,20.06
2018-09-21T03:56:28.471Z,20.03
2018-09-21T03:57:28.469Z,20.16
2018-09-21T03:58:56.454Z,20.14
2018-09-21T03:59:28.454Z,20.11
2018-09-21T04:00:28.444Z,20.18
2018-09-21T04:01:28.449Z,20.19
2018-09-21T04:02:28.452Z,20.19
2018-09-21T04:03:28.434Z,20.19
2018-09-21T04:04:28.434Z,20.25
2018-09-21T04:05:28.435Z,20.25
2018-09-21T04:06:28.426Z,20.28
2018-09-21T04:07:28.429Z,20.25
2018-09-21T04:08:28.414Z,20.39
2018-09-21T04:09:28.411Z,20.28
2018-09-21T04:10:28.410Z,20.36
2018-09-21T04:11:28.404Z,20.41
2018-09-21T04:12:28.400Z,20.31
2018-09-21T04:13:28.395Z,20.40
2018-09-21T04:14:28.392Z,20.39
2018-09-21T04:15:28.384Z,20.44
2018-09-21T04:16:28.384Z,20.44
2018-09-21T04:17:28.376Z,20.52
2018-09-21T04:18:28.379Z,20.51
2018-09-21T04:19:28.375Z,20.59
2018-09-21T04:20:28.369Z,20.58
2018-09-21T04:21:28.364Z,20.59
2018-09-21T04:22:28.361Z,20.50
2018-09-21T04:23:28.363Z,20.56
2018-09-21T04:24:28.350Z,20.59
2018-09-21T04:25:28.347Z,20.58
2018-09-21T04:26:28.349Z,20.55
2018-09-21T04:27:28.342Z,20.56
2018-09-21T04:28:28.343Z,20.59
2018-09-21T04:29:28.330Z,20.52
2018-09-21T04:30:28.338Z,20.55
2018-09-21T04:31:28.327Z,20.51
2018-09-21T04:32:28.318Z,20.63
2018-09-21T04:33:28.314Z,20.60
2018-09-21T04:34:28.315Z,20.65
2018-09-21T04:35:28.311Z,20.63
2018-09-21T04:36:28.302Z,20.67
2018-09-21T04:37:28.304Z,20.66
2018-09-21T04:38:28.299Z,20.63
2018-09-21T04:39:28.291Z,20.62
2018-09-21T04:40:28.291Z,20.69
2018-09-21T04:41:28.287Z,20.69
2018-09-21T04:42:28.279Z,20.80
2018-09-21T04:43:28.279Z,20.74
2018-09-21T04:44:28.271Z,20.67
2018-09-21T04:45:28.272Z,20.78
2018-09-21T04:46:28.263Z,20.80
2018-09-21T04:47:28.264Z,20.81
2018-09-21T04:48:28.265Z,20.95
2018-09-21T04:49:28.264Z,20.97
2018-09-21T04:50:28.258Z,20.96
2018-09-21T04:51:28.243Z,21.03
2018-09-21T04:52:28.260Z,21.07
2018-09-21T04:53:28.237Z,21.05
2018-09-21T04:54:28.241Z,21.12
2018-09-21T04:55:28.235Z,21.05
2018-09-21T04:56:28.226Z,21.11
2018-09-21T04:57:28.227Z,21.14
2018-09-21T04:58:28.220Z,21.20
2018-09-21T04:59:28.220Z,21.20
2018-09-21T05:00:28.209Z,21.32
2018-09-21T05:01:28.209Z,21.30
2018-09-21T05:02:28.203Z,21.22
2018-09-21T05:03:28.197Z,21.27
2018-09-21T05:04:28.194Z,21.27
2018-09-21T05:05:28.193Z,21.24
2018-09-21T05:06:28.192Z,21.24
2018-09-21T05:07:28.183Z,21.21
2018-09-21T05:08:28.182Z,21.33
2018-09-21T05:09:28.200Z,21.35
2018-09-21T05:10:28.179Z,21.32
2018-09-21T05:11:28.175Z,21.35
2018-09-21T05:12:28.174Z,21.46
2018-09-21T05:13:28.170Z,21.51
2018-09-21T05:14:28.170Z,21.45
2018-09-21T05:15:28.156Z,21.43
2018-09-21T05:16:28.154Z,21.50
2018-09-21T05:17:28.154Z,21.57
2018-09-21T05:18:28.146Z,21.61
2018-09-21T05:19:28.146Z,21.66
2018-09-21T05:20:28.136Z,21.73
2018-09-21T05:21:28.138Z,21.70
2018-09-21T05:22:28.131Z,21.76
2018-09-21T05:23:28.131Z,21.72
2018-09-21T05:24:28.128Z,21.67
2018-09-21T05:25:28.120Z,21.70
2018-09-21T05:26:28.121Z,21.70
2018-09-21T05:27:28.132Z,21.76
2018-09-21T05:28:28.110Z,21.66
2018-09-21T05:29:28.105Z,21.73
2018-09-21T05:30:28.108Z,21.80
2018-09-21T05:31:28.107Z,21.80
2018-09-21T05:32:28.097Z,21.80
2018-09-21T05:33:28.097Z,21.83
2018-09-21T05:34:28.156Z,21.82
2018-09-21T05:35:28.085Z,21.89
2018-09-21T05:36:28.081Z,21.95
2018-09-21T05:37:28.077Z,21.96
2018-09-21T05:38:28.075Z,21.88
2018-09-21T05:39:28.091Z,21.98
2018-09-21T05:40:28.074Z,21.98
2018-09-21T05:41:28.063Z,22.04
2018-09-21T05:42:28.062Z,21.96
2018-09-21T05:43:28.055Z,22.08
2018-09-21T05:44:28.052Z,22.06
2018-09-21T05:45:28.051Z,22.10
2018-09-21T05:46:28.051Z,22.13
2018-09-21T05:47:28.042Z,22.10
2018-09-21T05:48:28.040Z,22.11
2018-09-21T05:49:28.035Z,22.08
2018-09-21T05:50:28.032Z,22.15
2018-09-21T05:51:28.036Z,22.13
2018-09-21T05:52:28.030Z,22.18
2018-09-21T05:53:28.025Z,22.23
2018-09-21T05:54:28.017Z,22.23
2018-09-21T05:55:28.014Z,22.18
2018-09-21T05:56:28.013Z,22.20
2018-09-21T05:57:28.008Z,22.18
2018-09-21T05:58:28.006Z,22.17
2018-09-21T05:59:28.011Z,22.26
2018-09-21T06:00:28.003Z,22.20
2018-09-21T06:01:27.998Z,22.25
2018-09-21T06:02:27.997Z,22.15
2018-09-21T06:03:27.996Z,22.26
2018-09-21T06:04:27.991Z,22.30
2018-09-21T06:05:27.985Z,22.29
2018-09-21T06:06:27.980Z,22.30
2018-09-21T06:07:27.975Z,22.28
2018-09-21T06:08:27.970Z,22.25
2018-09-21T06:09:27.968Z,22.32
2018-09-21T06:10:27.970Z,22.20
2018-09-21T06:11:27.965Z,22.32
2018-09-21T06:12:27.968Z,22.17
2018-09-21T06:13:27.975Z,22.28
2018-09-21T06:14:27.957Z,22.26
2018-09-21T06:15:27.951Z,22.23
2018-09-21T06:16:27.947Z,22.28
2018-09-21T06:17:27.942Z,22.29
2018-09-21T06:18:27.941Z,22.26
2018-09-21T06:19:28.006Z,22.25
2018-09-21T06:20:27.939Z,22.26
2018-09-21T06:21:27.941Z,22.26
2018-09-21T06:22:27.930Z,22.26
2018-09-21T06:23:27.932Z,22.36
2018-09-21T06:24:27.922Z,22.32
2018-09-21T06:25:27.934Z,22.44
2018-09-21T06:26:27.914Z,22.41
2018-09-21T06:27:27.916Z,22.35
2018-09-21T06:28:27.908Z,22.45
2018-09-21T06:29:27.909Z,22.45
2018-09-21T06:30:27.908Z,22.48
2018-09-21T06:31:27.903Z,22.50
2018-09-21T06:32:27.900Z,22.53
2018-09-21T06:33:27.897Z,22.47
2018-09-21T06:34:27.896Z,22.50
2018-09-21T06:35:27.894Z,22.57
2018-09-21T06:36:27.889Z,22.51
2018-09-21T06:37:27.885Z,22.51
2018-09-21T06:38:27.881Z,22.53
2018-09-21T06:39:27.882Z,22.54
2018-09-21T06:40:27.880Z,22.53
2018-09-21T06:41:27.874Z,22.57
2018-09-21T06:42:27.936Z,22.57
2018-09-21T06:43:27.872Z,22.55
2018-09-21T06:44:27.925Z,22.57
2018-09-21T06:45:27.861Z,22.55
2018-09-21T06:46:27.861Z,22.48
2018-09-21T06:47:27.854Z,22.50
2018-09-21T06:48:27.853Z,22.57
2018-09-21T06:49:27.851Z,22.60
2018-09-21T06:50:27.846Z,22.54
2018-09-21T06:51:27.844Z,22.60
2018-09-21T06:52:27.842Z,22.60
2018-09-21T06:53:27.843Z,22.60
2018-09-21T06:54:27.836Z,22.69
2018-09-21T06:55:27.837Z,22.68
2018-09-21T06:56:27.836Z,22.53
2018-09-21T06:57:27.829Z,22.65
2018-09-21T06:58:27.827Z,22.66
2018-09-21T06:59:27.829Z,22.66
2018-09-21T07:00:27.817Z,22.63
2018-09-21T07:01:27.944Z,22.62
2018-09-21T07:02:27.826Z,22.69
2018-09-21T07:03:27.811Z,22.66
2018-09-21T07:04:27.813Z,22.69
2018-09-21T07:05:28.559Z,22.72
2018-09-21T07:06:27.813Z,22.76
2018-09-21T07:07:27.800Z,22.70
2018-09-21T07:08:27.799Z,22.70
2018-09-21T07:09:27.799Z,22.72
2018-09-21T07:10:27.796Z,22.76
2018-09-21T07:11:27.789Z,22.78
2018-09-21T07:12:27.793Z,22.69
2018-09-21T07:13:27.784Z,22.78
2018-09-21T07:14:27.784Z,22.76
2018-09-21T07:15:27.784Z,22.81
2018-09-21T07:16:27.775Z,22.75
2018-09-21T07:17:27.779Z,22.72
2018-09-21T07:18:27.773Z,22.73
2018-09-21T07:19:27.768Z,22.73
2018-09-21T07:20:27.767Z,22.65
2018-09-21T07:21:27.765Z,22.70
2018-09-21T07:22:27.762Z,22.66
2018-09-21T07:23:27.763Z,22.55
2018-09-21T07:24:27.757Z,22.54
2018-09-21T07:25:27.758Z,22.59
2018-09-21T07:26:27.760Z,22.57
2018-09-21T07:27:27.750Z,22.57
2018-09-21T07:28:27.750Z,22.55
2018-09-21T07:29:27.745Z,22.57
2018-09-21T07:30:27.744Z,22.62
2018-09-21T07:31:27.746Z,22.62
2018-09-21T07:32:27.738Z,22.60
2018-09-21T07:33:27.733Z,22.55
2018-09-21T07:34:27.733Z,22.60
2018-09-21T07:35:27.727Z,22.59
2018-09-21T07:36:27.728Z,22.59
2018-09-21T07:37:27.790Z,22.66
2018-09-21T07:38:27.722Z,22.53
2018-09-21T07:39:27.720Z,22.63
2018-09-21T07:40:27.715Z,22.55
2018-09-21T07:41:27.709Z,22.57
2018-09-21T07:42:27.708Z,22.53
2018-09-21T07:43:27.710Z,22.53
2018-09-21T07:44:27.715Z,22.54
2018-09-21T07:45:27.703Z,22.55
2018-09-21T07:46:27.702Z,22.55
2018-09-21T07:47:27.696Z,22.59
2018-09-21T07:48:27.690Z,22.59
2018-09-21T07:49:27.688Z,22.63
2018-09-21T07:50:27.758Z,22.68
2018-09-21T07:51:27.688Z,22.66
2018-09-21T07:52:27.683Z,22.66
2018-09-21T07:53:27.687Z,22.69
2018-09-21T07:54:27.709Z,22.69
2018-09-21T07:55:27.674Z,22.55
2018-09-21T07:56:27.689Z,22.66
2018-09-21T07:57:27.668Z,22.60
2018-09-21T07:58:27.672Z,22.57
2018-09-21T07:59:29.589Z,22.70
2018-09-21T08:00:27.668Z,22.63
2018-09-21T08:01:27.665Z,22.59
2018-09-21T08:02:27.655Z,22.54
2018-09-21T08:03:27.653Z,22.47
2018-09-21T08:04:27.649Z,22.51
2018-09-21T08:05:27.649Z,22.50
2018-09-21T08:06:27.650Z,22.44
2018-09-21T08:07:27.649Z,22.45
2018-09-21T08:08:27.642Z,22.45
2018-09-21T08:09:27.636Z,22.41
2018-09-21T08:10:27.637Z,22.44
2018-09-21T08:11:27.638Z,22.38
2018-09-21T08:12:27.632Z,22.32
2018-09-21T08:13:27.634Z,22.39
2018-09-21T08:14:27.625Z,22.28
2018-09-21T08:15:27.623Z,22.28
2018-09-21T08:16:27.629Z,22.29
2018-09-21T08:17:27.620Z,22.30
2018-09-21T08:18:27.623Z,22.26
2018-09-21T08:19:27.643Z,22.25
2018-09-21T08:20:27.611Z,22.28
2018-09-21T08:21:27.612Z,22.29
2018-09-21T08:22:27.607Z,22.43
2018-09-21T08:23:27.600Z,22.41
2018-09-21T08:24:27.602Z,22.45
2018-09-21T08:25:27.594Z,22.47
2018-09-21T08:26:27.611Z,22.47
2018-09-21T08:27:27.591Z,22.60
2018-09-21T08:28:27.592Z,22.62
2018-09-21T08:29:27.592Z,22.68
2018-09-21T08:30:27.591Z,22.69
2018-09-21T08:31:27.597Z,22.78
2018-09-21T08:32:27.577Z,22.80
2018-09-21T08:33:27.577Z,22.72
2018-09-21T08:34:27.575Z,22.78
2018-09-21T08:35:27.572Z,22.76
2018-09-21T08:36:27.571Z,22.75
2018-09-21T08:37:27.564Z,22.91
2018-09-21T08:38:27.562Z,22.84
2018-09-21T08:39:27.557Z,22.87
2018-09-21T08:40:27.555Z,22.83
2018-09-21T08:41:27.556Z,22.91
2018-09-21T08:42:27.559Z,22.81
2018-09-21T08:43:27.551Z,22.81
2018-09-21T08:44:27.545Z,22.81
2018-09-21T08:45:27.604Z,22.81
2018-09-21T08:46:27.545Z,22.78
2018-09-21T08:47:27.541Z,22.78
2018-09-21T08:48:27.540Z,22.81
2018-09-21T08:49:27.540Z,22.80
2018-09-21T08:50:27.541Z,22.81
2018-09-21T08:51:27.571Z,22.81
2018-09-21T08:52:27.528Z,22.78
2018-09-21T08:53:27.526Z,22.69
2018-09-21T08:54:27.525Z,22.54
2018-09-21T08:55:27.524Z,22.60
2018-09-21T08:56:27.521Z,22.54
2018-09-21T08:57:27.521Z,22.48
2018-09-21T08:58:27.516Z,22.45
2018-09-21T08:59:27.511Z,22.35
2018-09-21T09:00:27.509Z,22.43
2018-09-21T09:01:27.507Z,22.41
2018-09-21T09:02:27.514Z,22.25
2018-09-21T09:03:27.601Z,22.20
2018-09-21T09:04:27.500Z,22.06
2018-09-21T09:05:27.504Z,21.91
2018-09-21T09:06:27.499Z,21.72
2018-09-21T09:07:27.494Z,21.50
2018-09-21T09:08:27.490Z,21.42
2018-09-21T09:09:27.485Z,21.33
2018-09-21T09:10:27.484Z,21.11
2018-09-21T09:11:27.485Z,20.84
2018-09-21T09:12:27.487Z,20.66
2018-09-21T09:13:27.482Z,20.41
2018-09-21T09:14:27.475Z,20.24
2018-09-21T09:15:27.470Z,20.02
2018-09-21T09:16:27.471Z,19.81
2018-09-21T09:17:27.464Z,19.64
2018-09-21T09:18:27.463Z,19.48
2018-09-21T09:19:27.458Z,19.34
2018-09-21T09:20:27.449Z,19.09
2018-09-21T09:21:27.447Z,18.75
2018-09-21T09:22:27.443Z,18.25
2018-09-21T09:23:27.439Z,17.86
2018-09-21T09:24:27.460Z,17.54
2018-09-21T09:25:27.434Z,17.26
2018-09-21T09:26:27.460Z,17.11
2018-09-21T09:27:27.422Z,16.86
2018-09-21T09:28:27.422Z,16.71
2018-09-21T09:29:27.419Z,16.51
2018-09-21T09:30:27.410Z,16.35
2018-09-21T09:31:27.403Z,16.28
2018-09-21T09:32:27.405Z,16.28
2018-09-21T09:33:27.401Z,16.13
2018-09-21T09:34:27.391Z,16.12
2018-09-21T09:35:27.390Z,16.09
2018-09-21T09:36:27.380Z,16.02
2018-09-21T09:37:27.374Z,15.98
2018-09-21T09:38:27.369Z,16.00
2018-09-21T09:39:27.367Z,15.98
2018-09-21T09:40:27.360Z,15.98
2018-09-21T09:41:27.355Z,15.91
2018-09-21T09:42:27.353Z,15.91
2018-09-21T09:43:27.394Z,15.82
2018-09-21T09:44:27.347Z,15.79
2018-09-21T09:45:27.335Z,15.77
2018-09-21T09:46:27.327Z,15.80
2018-09-21T09:47:27.321Z,15.80
2018-09-21T09:48:27.366Z,15.84
2018-09-21T09:49:27.324Z,15.84
2018-09-21T09:50:27.308Z,15.80
2018-09-21T09:51:27.303Z,15.77
2018-09-21T09:52:27.298Z,15.80
2018-09-21T09:53:27.288Z,15.82
2018-09-21T09:54:27.281Z,15.75
2018-09-21T09:55:27.288Z,15.77
2018-09-21T09:56:27.270Z,15.86
2018-09-21T09:57:27.267Z,15.84
2018-09-21T09:58:27.292Z,15.83
2018-09-21T09:59:27.258Z,15.82
2018-09-21T10:00:27.250Z,15.83
2018-09-21T10:01:27.245Z,16.00
2018-09-21T10:02:27.242Z,15.84
2018-09-21T10:03:27.294Z,15.91
2018-09-21T10:04:27.236Z,15.92
2018-09-21T10:05:27.219Z,15.98
2018-09-21T10:06:28.157Z,16.02
2018-09-21T10:07:27.217Z,15.86
2018-09-21T10:08:27.202Z,15.92
2018-09-21T10:09:27.197Z,15.91
2018-09-21T10:10:27.218Z,15.92
2018-09-21T10:11:27.187Z,15.98
2018-09-21T10:12:27.182Z,15.90
2018-09-21T10:13:27.173Z,15.88
2018-09-21T10:14:27.181Z,15.86
2018-09-21T10:15:27.162Z,15.80
2018-09-21T10:16:27.175Z,15.84
2018-09-21T10:17:27.152Z,15.91
2018-09-21T10:18:27.151Z,15.88
2018-09-21T10:19:27.141Z,15.77
2018-09-21T10:20:27.172Z,15.80
2018-09-21T10:21:27.128Z,15.79
2018-09-21T10:22:27.125Z,15.83
2018-09-21T10:23:27.117Z,15.79
2018-09-21T10:24:27.110Z,15.83
2018-09-21T10:25:27.105Z,15.82
2018-09-21T10:26:27.102Z,15.86
2018-09-21T10:27:27.186Z,15.84
2018-09-21T10:28:27.271Z,15.82
2018-09-21T10:29:27.091Z,15.77
2018-09-21T10:30:27.077Z,15.77
2018-09-21T10:31:27.069Z,15.80
2018-09-21T10:32:27.062Z,15.84
2018-09-21T10:33:27.143Z,15.77
2018-09-21T10:34:27.089Z,15.76
2018-09-21T10:35:27.126Z,15.83
2018-09-21T10:36:27.043Z,15.73
2018-09-21T10:37:27.039Z,15.65
2018-09-21T10:38:27.033Z,15.67
2018-09-21T10:39:27.028Z,15.70
2018-09-21T10:40:27.100Z,15.72
2018-09-21T10:41:27.017Z,15.67
2018-09-21T10:42:27.015Z,15.65
2018-09-21T10:43:27.005Z,15.70
2018-09-21T10:44:26.996Z,15.75
2018-09-21T10:45:26.993Z,15.67
2018-09-21T10:46:26.987Z,15.68
2018-09-21T10:47:26.986Z,15.73
2018-09-21T10:48:26.976Z,15.83
2018-09-21T10:49:26.973Z,15.76
2018-09-21T10:50:26.968Z,15.84
2018-09-21T10:51:26.960Z,15.88
2018-09-21T10:52:26.951Z,15.84
2018-09-21T10:53:26.949Z,15.77
2018-09-21T10:54:26.940Z,15.88
2018-09-21T10:55:26.960Z,15.84
2018-09-21T10:56:26.931Z,15.88
2018-09-21T10:57:26.924Z,15.97
2018-09-21T10:58:26.978Z,15.97
2018-09-21T10:59:26.932Z,15.90
2018-09-21T11:00:26.954Z,15.92
2018-09-21T11:01:26.901Z,15.95
2018-09-21T11:02:26.911Z,15.91
2018-09-21T11:03:26.894Z,15.92
2018-09-21T11:04:26.885Z,15.91
2018-09-21T11:05:26.883Z,15.86
2018-09-21T11:06:27.685Z,15.84
2018-09-21T11:07:26.868Z,15.80
2018-09-21T11:08:26.868Z,15.92
2018-09-21T11:09:26.861Z,15.95
2018-09-21T11:10:26.854Z,16.01
2018-09-21T11:11:26.855Z,16.01
2018-09-21T11:12:26.847Z,15.98
2018-09-21T11:13:26.843Z,16.05
2018-09-21T11:14:26.830Z,15.95
2018-09-21T11:15:26.843Z,15.98
2018-09-21T11:16:26.823Z,15.95
2018-09-21T11:17:26.813Z,16.08
2018-09-21T11:18:26.811Z,16.00
2018-09-21T11:19:26.805Z,16.05
2018-09-21T11:20:26.814Z,16.10
2018-09-21T11:21:26.791Z,16.09
2018-09-21T11:22:26.793Z,16.09
2018-09-21T11:23:26.786Z,16.20
2018-09-21T11:24:26.783Z,16.24
2018-09-21T11:25:26.772Z,16.21
2018-09-21T11:26:26.769Z,16.26
2018-09-21T11:27:26.759Z,16.31
2018-09-21T11:28:26.756Z,16.38
2018-09-21T11:29:26.764Z,16.39
2018-09-21T11:30:26.753Z,16.49
2018-09-21T11:31:26.745Z,16.39
2018-09-21T11:32:26.743Z,16.41
2018-09-21T11:33:26.734Z,16.42
2018-09-21T11:34:26.727Z,16.38
2018-09-21T11:35:26.722Z,16.35
2018-09-21T11:36:26.718Z,16.33
2018-09-21T11:37:26.714Z,16.35
2018-09-21T11:38:26.712Z,16.36
2018-09-21T11:39:26.704Z,16.46
2018-09-21T11:40:26.697Z,16.46
2018-09-21T11:41:26.693Z,16.47
2018-09-21T11:42:26.686Z,16.57
2018-09-21T11:43:26.681Z,16.51
2018-09-21T11:44:26.681Z,16.56
2018-09-21T11:45:26.673Z,16.65
2018-09-21T11:46:26.673Z,16.71
2018-09-21T11:47:26.711Z,16.75
2018-09-21T11:48:26.662Z,16.89
2018-09-21T11:49:26.653Z,16.87
2018-09-21T11:50:26.652Z,16.81
2018-09-21T11:51:26.645Z,17.01
2018-09-21T11:52:26.636Z,16.97
2018-09-21T11:53:26.635Z,17.05
2018-09-21T11:54:26.628Z,17.04
2018-09-21T11:55:26.628Z,17.06
2018-09-21T11:56:26.623Z,17.06
2018-09-21T11:57:26.617Z,17.05
2018-09-21T11:58:26.616Z,16.96
2018-09-21T11:59:26.609Z,16.90
2018-09-21T12:00:26.602Z,16.94
2018-09-21T12:01:26.601Z,16.94
2018-09-21T12:02:26.590Z,16.89
2018-09-21T12:03:26.593Z,16.81
2018-09-21T12:04:26.585Z,16.78
2018-09-21T12:05:26.581Z,16.81
2018-09-21T12:06:26.578Z,16.84
2018-09-21T12:07:26.570Z,16.83
2018-09-21T12:08:26.565Z,16.79
2018-09-21T12:09:26.558Z,16.86
2018-09-21T12:10:26.588Z,16.72
2018-09-21T12:11:26.553Z,16.79
2018-09-21T12:12:26.544Z,16.87
2018-09-21T12:13:26.544Z,16.78
2018-09-21T12:14:26.539Z,16.79
2018-09-21T12:15:26.529Z,16.75
2018-09-21T12:16:26.526Z,16.74
2018-09-21T12:17:26.522Z,16.71
2018-09-21T12:18:26.518Z,16.72
2018-09-21T12:19:26.512Z,16.71
2018-09-21T12:20:26.513Z,16.74
2018-09-21T12:21:26.504Z,16.81
2018-09-21T12:22:26.499Z,16.83
2018-09-21T12:23:26.493Z,16.86
2018-09-21T12:24:26.490Z,16.84
2018-09-21T12:25:26.484Z,16.84
2018-09-21T12:26:26.484Z,16.84
2018-09-21T12:27:26.476Z,16.87
2018-09-21T12:28:26.470Z,16.86
2018-09-21T12:29:26.463Z,16.94
2018-09-21T12:30:26.479Z,16.94
2018-09-21T12:31:26.454Z,16.99
2018-09-21T12:32:26.453Z,16.99
2018-09-21T12:33:26.449Z,17.06
2018-09-21T12:34:26.441Z,17.04
2018-09-21T12:35:26.441Z,17.04
2018-09-21T12:36:26.520Z,17.04
2018-09-21T12:37:26.426Z,17.16
2018-09-21T12:38:26.433Z,17.01
2018-09-21T12:39:26.418Z,17.12
2018-09-21T12:40:26.413Z,17.09
2018-09-21T12:41:26.409Z,17.15
2018-09-21T12:42:26.408Z,17.08
2018-09-21T12:43:26.393Z,17.26
2018-09-21T12:44:26.449Z,17.27
2018-09-21T12:45:26.399Z,17.22
2018-09-21T12:46:26.385Z,17.20
2018-09-21T12:47:26.383Z,17.15
2018-09-21T12:48:26.378Z,17.11
2018-09-21T12:49:26.371Z,17.16
2018-09-21T12:50:26.429Z,17.14
2018-09-21T12:51:26.362Z,17.15
2018-09-21T12:52:26.358Z,17.12